sensor_id;sensor_type;location;lat;lon;timestamp;P1;durP1;ratioP1;P2;durP2;ratioP2
9924;SDS011;5001;51.674;7.868;2023-02-19T00:01:45;47.53;;;30.43;;
9924;SDS011;5001;51.674;7.868;2023-02-19T00:04:17;46.10;;;29.33;;
9924;SDS011;5001;51.674;7.868;2023-02-19T00:06:46;46.97;;;30.07;;
9924;SDS011;5001;51.674;7.868;2023-02-19T00:09:14;46.23;;;28.70;;
9924;SDS011;5001;51.674;7.868;2023-02-19T00:11:43;46.40;;;28.27;;
9924;SDS011;5001;51.674;7.868;2023-02-19T00:14:13;39.63;;;25.70;;
9924;SDS011;5001;51.674;7.868;2023-02-19T00:16:42;39.90;;;27.33;;
9924;SDS011;5001;51.674;7.868;2023-02-19T00:19:17;41.13;;;26.83;;
9924;SDS011;5001;51.674;7.868;2023-02-19T00:21:45;40.60;;;26.10;;
9924;SDS011;5001;51.674;7.868;2023-02-19T00:24:13;41.17;;;26.67;;
9924;SDS011;5001;51.674;7.868;2023-02-19T00:26:40;41.47;;;27.43;;
9924;SDS011;5001;51.674;7.868;2023-02-19T00:29:11;43.10;;;29.90;;
9924;SDS011;5001;51.674;7.868;2023-02-19T00:31:40;48.77;;;30.10;;
9924;SDS011;5001;51.674;7.868;2023-02-19T00:34:08;45.23;;;29.50;;
9924;SDS011;5001;51.674;7.868;2023-02-19T00:36:37;46.93;;;31.83;;
9924;SDS011;5001;51.674;7.868;2023-02-19T00:39:06;46.40;;;31.40;;
9924;SDS011;5001;51.674;7.868;2023-02-19T00:41:36;50.80;;;34.00;;
9924;SDS011;5001;51.674;7.868;2023-02-19T00:44:04;54.00;;;35.20;;
9924;SDS011;5001;51.674;7.868;2023-02-19T00:46:34;64.07;;;39.40;;
9924;SDS011;5001;51.674;7.868;2023-02-19T00:49:18;58.17;;;40.67;;
9924;SDS011;5001;51.674;7.868;2023-02-19T00:51:48;70.10;;;42.43;;
9924;SDS011;5001;51.674;7.868;2023-02-19T00:54:16;69.20;;;42.73;;
9924;SDS011;5001;51.674;7.868;2023-02-19T00:56:44;67.27;;;42.20;;
9924;SDS011;5001;51.674;7.868;2023-02-19T00:59:11;69.63;;;46.07;;
9924;SDS011;5001;51.674;7.868;2023-02-19T01:01:38;64.80;;;44.00;;
9924;SDS011;5001;51.674;7.868;2023-02-19T01:04:05;69.17;;;46.37;;
9924;SDS011;5001;51.674;7.868;2023-02-19T01:06:33;68.23;;;46.40;;
9924;SDS011;5001;51.674;7.868;2023-02-19T01:09:01;68.20;;;45.27;;
9924;SDS011;5001;51.674;7.868;2023-02-19T01:11:30;68.20;;;43.93;;
9924;SDS011;5001;51.674;7.868;2023-02-19T01:13:58;69.17;;;45.47;;
9924;SDS011;5001;51.674;7.868;2023-02-19T01:16:26;68.43;;;45.97;;
9924;SDS011;5001;51.674;7.868;2023-02-19T01:18:54;69.87;;;45.53;;
9924;SDS011;5001;51.674;7.868;2023-02-19T01:21:23;67.63;;;46.13;;
9924;SDS011;5001;51.674;7.868;2023-02-19T01:23:51;67.03;;;44.17;;
9924;SDS011;5001;51.674;7.868;2023-02-19T01:26:26;72.20;;;45.60;;
9924;SDS011;5001;51.674;7.868;2023-02-19T01:28:55;70.23;;;44.50;;
9924;SDS011;5001;51.674;7.868;2023-02-19T01:31:23;70.50;;;44.17;;
9924;SDS011;5001;51.674;7.868;2023-02-19T01:33:51;66.33;;;45.73;;
9924;SDS011;5001;51.674;7.868;2023-02-19T01:36:20;68.30;;;44.70;;
9924;SDS011;5001;51.674;7.868;2023-02-19T01:38:48;63.70;;;42.40;;
9924;SDS011;5001;51.674;7.868;2023-02-19T01:41:16;66.43;;;45.23;;
9924;SDS011;5001;51.674;7.868;2023-02-19T01:46:34;70.17;;;46.67;;
9924;SDS011;5001;51.674;7.868;2023-02-19T01:49:09;73.20;;;46.80;;
9924;SDS011;5001;51.674;7.868;2023-02-19T01:51:40;67.97;;;46.03;;
9924;SDS011;5001;51.674;7.868;2023-02-19T01:54:31;68.13;;;44.83;;
9924;SDS011;5001;51.674;7.868;2023-02-19T01:57:02;64.30;;;42.77;;
9924;SDS011;5001;51.674;7.868;2023-02-19T01:59:33;65.40;;;43.60;;
9924;SDS011;5001;51.674;7.868;2023-02-19T02:02:00;67.80;;;44.50;;
9924;SDS011;5001;51.674;7.868;2023-02-19T02:04:29;67.60;;;44.07;;
9924;SDS011;5001;51.674;7.868;2023-02-19T02:06:58;67.07;;;44.13;;
9924;SDS011;5001;51.674;7.868;2023-02-19T02:09:28;63.60;;;44.50;;
9924;SDS011;5001;51.674;7.868;2023-02-19T02:12:15;61.17;;;42.47;;
9924;SDS011;5001;51.674;7.868;2023-02-19T02:14:43;62.43;;;42.00;;
9924;SDS011;5001;51.674;7.868;2023-02-19T02:17:35;59.33;;;40.90;;
9924;SDS011;5001;51.674;7.868;2023-02-19T02:22:51;57.53;;;39.00;;
9924;SDS011;5001;51.674;7.868;2023-02-19T02:31:13;53.37;;;37.43;;
9924;SDS011;5001;51.674;7.868;2023-02-19T02:33:48;57.03;;;38.17;;
9924;SDS011;5001;51.674;7.868;2023-02-19T02:36:34;54.60;;;37.93;;
9924;SDS011;5001;51.674;7.868;2023-02-19T02:39:08;50.70;;;31.03;;
9924;SDS011;5001;51.674;7.868;2023-02-19T02:41:41;48.63;;;31.70;;
9924;SDS011;5001;51.674;7.868;2023-02-19T02:44:11;46.57;;;29.20;;
9924;SDS011;5001;51.674;7.868;2023-02-19T02:46:40;42.50;;;27.57;;
9924;SDS011;5001;51.674;7.868;2023-02-19T02:49:16;41.73;;;26.73;;
9924;SDS011;5001;51.674;7.868;2023-02-19T02:51:50;41.00;;;25.57;;
9924;SDS011;5001;51.674;7.868;2023-02-19T02:54:25;37.13;;;23.83;;
9924;SDS011;5001;51.674;7.868;2023-02-19T02:57:19;38.77;;;23.23;;
9924;SDS011;5001;51.674;7.868;2023-02-19T02:59:54;36.90;;;22.70;;
9924;SDS011;5001;51.674;7.868;2023-02-19T03:02:24;39.10;;;24.00;;
9924;SDS011;5001;51.674;7.868;2023-02-19T03:05:14;40.57;;;22.33;;
9924;SDS011;5001;51.674;7.868;2023-02-19T03:08:13;38.73;;;23.27;;
9924;SDS011;5001;51.674;7.868;2023-02-19T03:10:57;31.60;;;21.27;;
9924;SDS011;5001;51.674;7.868;2023-02-19T03:13:50;33.63;;;22.23;;
9924;SDS011;5001;51.674;7.868;2023-02-19T03:16:39;26.20;;;18.33;;
9924;SDS011;5001;51.674;7.868;2023-02-19T03:19:28;30.80;;;19.83;;
9924;SDS011;5001;51.674;7.868;2023-02-19T03:22:00;28.53;;;19.17;;
9924;SDS011;5001;51.674;7.868;2023-02-19T03:24:37;30.20;;;20.13;;
9924;SDS011;5001;51.674;7.868;2023-02-19T03:27:29;32.83;;;21.23;;
9924;SDS011;5001;51.674;7.868;2023-02-19T03:30:00;27.50;;;19.03;;
9924;SDS011;5001;51.674;7.868;2023-02-19T03:32:35;34.80;;;23.10;;
9924;SDS011;5001;51.674;7.868;2023-02-19T03:35:18;30.00;;;20.63;;
9924;SDS011;5001;51.674;7.868;2023-02-19T03:40:28;30.93;;;21.33;;
9924;SDS011;5001;51.674;7.868;2023-02-19T03:45:47;30.67;;;19.90;;
9924;SDS011;5001;51.674;7.868;2023-02-19T03:53:45;28.40;;;20.93;;
9924;SDS011;5001;51.674;7.868;2023-02-19T03:56:38;28.33;;;18.57;;
9924;SDS011;5001;51.674;7.868;2023-02-19T03:59:22;29.30;;;18.93;;
9924;SDS011;5001;51.674;7.868;2023-02-19T04:02:08;34.03;;;19.90;;
9924;SDS011;5001;51.674;7.868;2023-02-19T04:04:50;28.97;;;17.30;;
9924;SDS011;5001;51.674;7.868;2023-02-19T04:07:26;30.07;;;16.93;;
9924;SDS011;5001;51.674;7.868;2023-02-19T04:09:58;24.43;;;14.93;;
9924;SDS011;5001;51.674;7.868;2023-02-19T04:12:25;21.07;;;13.23;;
9924;SDS011;5001;51.674;7.868;2023-02-19T04:14:58;13.10;;;8.73;;
9924;SDS011;5001;51.674;7.868;2023-02-19T04:17:33;13.10;;;8.97;;
9924;SDS011;5001;51.674;7.868;2023-02-19T04:20:05;13.27;;;8.17;;
9924;SDS011;5001;51.674;7.868;2023-02-19T04:22:35;12.63;;;8.00;;
9924;SDS011;5001;51.674;7.868;2023-02-19T04:25:04;17.50;;;8.70;;
9924;SDS011;5001;51.674;7.868;2023-02-19T04:27:31;9.60;;;7.80;;
9924;SDS011;5001;51.674;7.868;2023-02-19T04:30:03;12.43;;;8.50;;
9924;SDS011;5001;51.674;7.868;2023-02-19T04:32:31;16.37;;;8.93;;
9924;SDS011;5001;51.674;7.868;2023-02-19T04:34:58;15.13;;;9.83;;
9924;SDS011;5001;51.674;7.868;2023-02-19T04:37:25;19.70;;;11.27;;
9924;SDS011;5001;51.674;7.868;2023-02-19T04:39:52;22.20;;;12.90;;
9924;SDS011;5001;51.674;7.868;2023-02-19T04:42:19;23.70;;;14.73;;
9924;SDS011;5001;51.674;7.868;2023-02-19T04:44:46;28.60;;;16.93;;
9924;SDS011;5001;51.674;7.868;2023-02-19T04:47:13;30.27;;;18.70;;
9924;SDS011;5001;51.674;7.868;2023-02-19T04:49:43;33.50;;;20.33;;
9924;SDS011;5001;51.674;7.868;2023-02-19T04:52:11;33.53;;;21.47;;
9924;SDS011;5001;51.674;7.868;2023-02-19T04:54:38;38.43;;;22.67;;
9924;SDS011;5001;51.674;7.868;2023-02-19T04:57:05;33.90;;;21.70;;
9924;SDS011;5001;51.674;7.868;2023-02-19T04:59:32;30.60;;;20.13;;
9924;SDS011;5001;51.674;7.868;2023-02-19T05:01:59;33.97;;;21.03;;
9924;SDS011;5001;51.674;7.868;2023-02-19T05:04:26;34.80;;;20.97;;
9924;SDS011;5001;51.674;7.868;2023-02-19T05:06:53;33.80;;;21.93;;
9924;SDS011;5001;51.674;7.868;2023-02-19T05:09:20;35.97;;;21.33;;
9924;SDS011;5001;51.674;7.868;2023-02-19T05:11:50;32.90;;;21.17;;
9924;SDS011;5001;51.674;7.868;2023-02-19T05:14:20;33.63;;;19.93;;
9924;SDS011;5001;51.674;7.868;2023-02-19T05:16:47;34.10;;;20.83;;
9924;SDS011;5001;51.674;7.868;2023-02-19T05:19:14;30.00;;;19.90;;
9924;SDS011;5001;51.674;7.868;2023-02-19T05:21:41;28.53;;;18.70;;
9924;SDS011;5001;51.674;7.868;2023-02-19T05:24:08;32.90;;;19.60;;
9924;SDS011;5001;51.674;7.868;2023-02-19T05:26:35;34.03;;;21.40;;
9924;SDS011;5001;51.674;7.868;2023-02-19T05:29:02;33.07;;;19.37;;
9924;SDS011;5001;51.674;7.868;2023-02-19T05:31:29;28.23;;;19.70;;
9924;SDS011;5001;51.674;7.868;2023-02-19T05:33:59;34.13;;;18.70;;
9924;SDS011;5001;51.674;7.868;2023-02-19T05:36:26;28.90;;;18.00;;
9924;SDS011;5001;51.674;7.868;2023-02-19T05:38:54;26.97;;;19.00;;
9924;SDS011;5001;51.674;7.868;2023-02-19T05:41:25;27.83;;;18.57;;
9924;SDS011;5001;51.674;7.868;2023-02-19T05:43:54;26.60;;;18.80;;
9924;SDS011;5001;51.674;7.868;2023-02-19T05:46:26;26.57;;;18.07;;
9924;SDS011;5001;51.674;7.868;2023-02-19T05:48:55;30.17;;;19.63;;
9924;SDS011;5001;51.674;7.868;2023-02-19T05:51:26;31.07;;;20.07;;
9924;SDS011;5001;51.674;7.868;2023-02-19T05:53:54;28.77;;;19.73;;
9924;SDS011;5001;51.674;7.868;2023-02-19T05:59:05;29.33;;;19.33;;
9924;SDS011;5001;51.674;7.868;2023-02-19T06:01:41;28.03;;;19.17;;
9924;SDS011;5001;51.674;7.868;2023-02-19T06:04:12;28.80;;;19.27;;
9924;SDS011;5001;51.674;7.868;2023-02-19T06:06:40;30.00;;;19.87;;
9924;SDS011;5001;51.674;7.868;2023-02-19T06:09:07;30.00;;;18.27;;
9924;SDS011;5001;51.674;7.868;2023-02-19T06:11:37;32.90;;;19.77;;
9924;SDS011;5001;51.674;7.868;2023-02-19T06:14:04;26.80;;;18.50;;
9924;SDS011;5001;51.674;7.868;2023-02-19T06:16:40;28.13;;;16.93;;
9924;SDS011;5001;51.674;7.868;2023-02-19T06:19:10;24.70;;;17.23;;
9924;SDS011;5001;51.674;7.868;2023-02-19T06:21:37;25.73;;;17.20;;
9924;SDS011;5001;51.674;7.868;2023-02-19T06:24:10;32.07;;;18.03;;
9924;SDS011;5001;51.674;7.868;2023-02-19T06:26:37;23.10;;;16.33;;
9924;SDS011;5001;51.674;7.868;2023-02-19T06:29:06;24.27;;;16.40;;
9924;SDS011;5001;51.674;7.868;2023-02-19T06:31:34;24.03;;;16.30;;
9924;SDS011;5001;51.674;7.868;2023-02-19T06:34:04;21.43;;;16.30;;
9924;SDS011;5001;51.674;7.868;2023-02-19T06:36:35;26.93;;;16.43;;
9924;SDS011;5001;51.674;7.868;2023-02-19T06:39:05;21.97;;;14.67;;
9924;SDS011;5001;51.674;7.868;2023-02-19T06:41:35;21.93;;;14.27;;
9924;SDS011;5001;51.674;7.868;2023-02-19T06:44:10;19.23;;;14.70;;
9924;SDS011;5001;51.674;7.868;2023-02-19T06:46:37;20.13;;;14.63;;
9924;SDS011;5001;51.674;7.868;2023-02-19T06:49:05;19.37;;;13.90;;
9924;SDS011;5001;51.674;7.868;2023-02-19T06:51:32;21.40;;;14.37;;
9924;SDS011;5001;51.674;7.868;2023-02-19T06:54:00;19.73;;;15.83;;
9924;SDS011;5001;51.674;7.868;2023-02-19T06:56:30;23.40;;;15.87;;
9924;SDS011;5001;51.674;7.868;2023-02-19T06:59:00;27.10;;;17.30;;
9924;SDS011;5001;51.674;7.868;2023-02-19T07:01:30;27.37;;;17.53;;
9924;SDS011;5001;51.674;7.868;2023-02-19T07:04:01;23.83;;;16.80;;
9924;SDS011;5001;51.674;7.868;2023-02-19T07:06:29;26.57;;;17.17;;
9924;SDS011;5001;51.674;7.868;2023-02-19T07:08:57;24.07;;;17.03;;
9924;SDS011;5001;51.674;7.868;2023-02-19T07:11:28;21.77;;;17.53;;
9924;SDS011;5001;51.674;7.868;2023-02-19T07:13:57;28.37;;;16.97;;
9924;SDS011;5001;51.674;7.868;2023-02-19T07:16:25;30.07;;;18.70;;
9924;SDS011;5001;51.674;7.868;2023-02-19T07:18:54;25.80;;;18.70;;
9924;SDS011;5001;51.674;7.868;2023-02-19T07:21:23;24.80;;;18.70;;
9924;SDS011;5001;51.674;7.868;2023-02-19T07:23:50;28.20;;;19.10;;
9924;SDS011;5001;51.674;7.868;2023-02-19T07:26:18;27.53;;;18.53;;
9924;SDS011;5001;51.674;7.868;2023-02-19T07:28:47;26.03;;;17.33;;
9924;SDS011;5001;51.674;7.868;2023-02-19T07:31:16;26.70;;;18.00;;
9924;SDS011;5001;51.674;7.868;2023-02-19T07:33:45;24.93;;;18.40;;
9924;SDS011;5001;51.674;7.868;2023-02-19T07:36:13;21.97;;;16.17;;
9924;SDS011;5001;51.674;7.868;2023-02-19T07:38:41;24.90;;;16.40;;
9924;SDS011;5001;51.674;7.868;2023-02-19T07:41:09;26.03;;;16.23;;
9924;SDS011;5001;51.674;7.868;2023-02-19T07:43:37;22.63;;;17.67;;
9924;SDS011;5001;51.674;7.868;2023-02-19T07:46:05;20.63;;;14.57;;
9924;SDS011;5001;51.674;7.868;2023-02-19T07:48:34;25.17;;;16.87;;
9924;SDS011;5001;51.674;7.868;2023-02-19T07:51:03;22.73;;;15.77;;
9924;SDS011;5001;51.674;7.868;2023-02-19T07:53:32;20.77;;;16.20;;
9924;SDS011;5001;51.674;7.868;2023-02-19T07:56:01;16.27;;;13.27;;
9924;SDS011;5001;51.674;7.868;2023-02-19T07:58:31;13.00;;;10.40;;
9924;SDS011;5001;51.674;7.868;2023-02-19T08:01:05;14.60;;;9.60;;
9924;SDS011;5001;51.674;7.868;2023-02-19T08:03:35;11.63;;;9.70;;
9924;SDS011;5001;51.674;7.868;2023-02-19T08:06:03;11.50;;;9.03;;
9924;SDS011;5001;51.674;7.868;2023-02-19T08:08:32;19.40;;;9.40;;
9924;SDS011;5001;51.674;7.868;2023-02-19T08:11:00;12.37;;;9.63;;
9924;SDS011;5001;51.674;7.868;2023-02-19T08:13:47;12.30;;;9.40;;
9924;SDS011;5001;51.674;7.868;2023-02-19T08:16:15;9.47;;;7.47;;
9924;SDS011;5001;51.674;7.868;2023-02-19T08:18:58;14.93;;;9.60;;
9924;SDS011;5001;51.674;7.868;2023-02-19T08:21:25;14.13;;;9.87;;
9924;SDS011;5001;51.674;7.868;2023-02-19T08:23:52;17.00;;;10.97;;
9924;SDS011;5001;51.674;7.868;2023-02-19T08:26:19;15.70;;;10.77;;
9924;SDS011;5001;51.674;7.868;2023-02-19T08:28:46;15.73;;;10.80;;
9924;SDS011;5001;51.674;7.868;2023-02-19T08:31:16;16.10;;;11.93;;
9924;SDS011;5001;51.674;7.868;2023-02-19T08:33:43;15.37;;;12.07;;
9924;SDS011;5001;51.674;7.868;2023-02-19T08:36:10;14.77;;;12.33;;
9924;SDS011;5001;51.674;7.868;2023-02-19T08:38:37;14.97;;;11.83;;
9924;SDS011;5001;51.674;7.868;2023-02-19T08:41:05;19.03;;;12.13;;
9924;SDS011;5001;51.674;7.868;2023-02-19T08:43:34;15.27;;;10.83;;
9924;SDS011;5001;51.674;7.868;2023-02-19T08:46:01;15.13;;;10.60;;
9924;SDS011;5001;51.674;7.868;2023-02-19T08:48:29;14.37;;;9.93;;
9924;SDS011;5001;51.674;7.868;2023-02-19T08:50:57;11.87;;;9.97;;
9924;SDS011;5001;51.674;7.868;2023-02-19T08:53:32;13.07;;;9.73;;
9924;SDS011;5001;51.674;7.868;2023-02-19T08:56:14;11.90;;;9.90;;
9924;SDS011;5001;51.674;7.868;2023-02-19T08:58:42;10.67;;;9.53;;
9924;SDS011;5001;51.674;7.868;2023-02-19T09:01:11;11.10;;;8.00;;
9924;SDS011;5001;51.674;7.868;2023-02-19T09:03:41;10.33;;;7.73;;
9924;SDS011;5001;51.674;7.868;2023-02-19T09:06:18;14.23;;;8.87;;
9924;SDS011;5001;51.674;7.868;2023-02-19T09:08:45;8.93;;;7.30;;
9924;SDS011;5001;51.674;7.868;2023-02-19T09:11:12;9.23;;;7.07;;
9924;SDS011;5001;51.674;7.868;2023-02-19T09:13:40;8.87;;;6.40;;
9924;SDS011;5001;51.674;7.868;2023-02-19T09:16:07;7.93;;;6.60;;
9924;SDS011;5001;51.674;7.868;2023-02-19T09:18:35;7.17;;;6.20;;
9924;SDS011;5001;51.674;7.868;2023-02-19T09:21:02;11.20;;;6.20;;
9924;SDS011;5001;51.674;7.868;2023-02-19T09:23:31;6.77;;;6.03;;
9924;SDS011;5001;51.674;7.868;2023-02-19T09:25:59;8.90;;;6.60;;
9924;SDS011;5001;51.674;7.868;2023-02-19T09:28:28;9.83;;;6.97;;
9924;SDS011;5001;51.674;7.868;2023-02-19T09:30:55;5.07;;;3.80;;
9924;SDS011;5001;51.674;7.868;2023-02-19T09:33:22;5.17;;;3.27;;
9924;SDS011;5001;51.674;7.868;2023-02-19T09:35:49;5.40;;;4.43;;
9924;SDS011;5001;51.674;7.868;2023-02-19T09:38:16;10.93;;;6.80;;
9924;SDS011;5001;51.674;7.868;2023-02-19T09:40:43;5.83;;;3.73;;
9924;SDS011;5001;51.674;7.868;2023-02-19T09:43:17;8.47;;;4.57;;
9924;SDS011;5001;51.674;7.868;2023-02-19T09:45:47;5.33;;;3.83;;
9924;SDS011;5001;51.674;7.868;2023-02-19T09:48:16;6.37;;;4.47;;
9924;SDS011;5001;51.674;7.868;2023-02-19T09:50:44;4.57;;;3.80;;
9924;SDS011;5001;51.674;7.868;2023-02-19T09:53:20;4.63;;;3.97;;
9924;SDS011;5001;51.674;7.868;2023-02-19T09:55:51;4.53;;;4.00;;
9924;SDS011;5001;51.674;7.868;2023-02-19T09:58:26;6.00;;;4.80;;
9924;SDS011;5001;51.674;7.868;2023-02-19T10:00:57;5.30;;;3.77;;
9924;SDS011;5001;51.674;7.868;2023-02-19T10:06:05;7.30;;;4.83;;
9924;SDS011;5001;51.674;7.868;2023-02-19T10:08:50;6.83;;;5.70;;
9924;SDS011;5001;51.674;7.868;2023-02-19T10:11:25;8.83;;;6.43;;
9924;SDS011;5001;51.674;7.868;2023-02-19T10:13:54;6.30;;;5.63;;
9924;SDS011;5001;51.674;7.868;2023-02-19T10:16:30;6.83;;;5.90;;
9924;SDS011;5001;51.674;7.868;2023-02-19T10:18:58;7.17;;;5.73;;
9924;SDS011;5001;51.674;7.868;2023-02-19T10:21:26;7.97;;;5.80;;
9924;SDS011;5001;51.674;7.868;2023-02-19T10:23:54;18.70;;;11.87;;
9924;SDS011;5001;51.674;7.868;2023-02-19T10:26:27;7.57;;;6.07;;
9924;SDS011;5001;51.674;7.868;2023-02-19T10:28:57;6.00;;;5.40;;
9924;SDS011;5001;51.674;7.868;2023-02-19T10:31:24;10.17;;;5.23;;
9924;SDS011;5001;51.674;7.868;2023-02-19T10:33:52;5.60;;;4.27;;
9924;SDS011;5001;51.674;7.868;2023-02-19T10:38:57;4.70;;;3.03;;
9924;SDS011;5001;51.674;7.868;2023-02-19T10:41:26;3.77;;;2.33;;
9924;SDS011;5001;51.674;7.868;2023-02-19T10:44:13;3.00;;;2.27;;
9924;SDS011;5001;51.674;7.868;2023-02-19T10:46:44;3.30;;;3.00;;
9924;SDS011;5001;51.674;7.868;2023-02-19T10:49:19;7.30;;;3.60;;
9924;SDS011;5001;51.674;7.868;2023-02-19T10:52:03;2.30;;;2.00;;
9924;SDS011;5001;51.674;7.868;2023-02-19T10:57:41;5.77;;;2.80;;
9924;SDS011;5001;51.674;7.868;2023-02-19T11:02:41;5.30;;;4.80;;
9924;SDS011;5001;51.674;7.868;2023-02-19T11:05:16;4.57;;;4.17;;
9924;SDS011;5001;51.674;7.868;2023-02-19T11:12:56;1.90;;;1.60;;
9924;SDS011;5001;51.674;7.868;2023-02-19T11:15:27;4.00;;;1.97;;
9924;SDS011;5001;51.674;7.868;2023-02-19T11:20:58;3.77;;;2.33;;
9924;SDS011;5001;51.674;7.868;2023-02-19T11:25:57;3.13;;;2.67;;
9924;SDS011;5001;51.674;7.868;2023-02-19T11:28:39;3.70;;;2.93;;
9924;SDS011;5001;51.674;7.868;2023-02-19T11:36:25;2.97;;;2.33;;
9924;SDS011;5001;51.674;7.868;2023-02-19T11:38:56;3.60;;;3.23;;
9924;SDS011;5001;51.674;7.868;2023-02-19T11:56:08;2.50;;;2.30;;
9924;SDS011;5001;51.674;7.868;2023-02-19T11:59:03;4.03;;;3.10;;
9924;SDS011;5001;51.674;7.868;2023-02-19T12:13:07;2.70;;;2.50;;
9924;SDS011;5001;51.674;7.868;2023-02-19T12:26:45;3.30;;;2.13;;
9924;SDS011;5001;51.674;7.868;2023-02-19T12:32:23;2.50;;;2.30;;
9924;SDS011;5001;51.674;7.868;2023-02-19T12:37:52;2.30;;;2.10;;
9924;SDS011;5001;51.674;7.868;2023-02-19T12:45:34;4.43;;;2.63;;
9924;SDS011;5001;51.674;7.868;2023-02-19T12:50:46;2.97;;;1.90;;
9924;SDS011;5001;51.674;7.868;2023-02-19T12:56:22;3.27;;;2.97;;
9924;SDS011;5001;51.674;7.868;2023-02-19T12:58:54;4.40;;;3.40;;
9924;SDS011;5001;51.674;7.868;2023-02-19T13:01:29;4.73;;;3.30;;
9924;SDS011;5001;51.674;7.868;2023-02-19T13:07:04;2.77;;;2.57;;
9924;SDS011;5001;51.674;7.868;2023-02-19T13:12:13;2.60;;;2.40;;
9924;SDS011;5001;51.674;7.868;2023-02-19T13:17:45;3.73;;;3.33;;
9924;SDS011;5001;51.674;7.868;2023-02-19T13:20:33;3.50;;;2.47;;
9924;SDS011;5001;51.674;7.868;2023-02-19T13:23:05;3.67;;;3.03;;
9924;SDS011;5001;51.674;7.868;2023-02-19T13:37:13;2.43;;;1.93;;
9924;SDS011;5001;51.674;7.868;2023-02-19T13:39:49;2.20;;;2.00;;
9924;SDS011;5001;51.674;7.868;2023-02-19T13:42:29;2.30;;;2.10;;
9924;SDS011;5001;51.674;7.868;2023-02-19T13:45:02;2.33;;;2.13;;
9924;SDS011;5001;51.674;7.868;2023-02-19T13:52:58;4.90;;;4.50;;
9924;SDS011;5001;51.674;7.868;2023-02-19T14:01:02;3.40;;;3.10;;
9924;SDS011;5001;51.674;7.868;2023-02-19T14:06:07;5.00;;;3.60;;
9924;SDS011;5001;51.674;7.868;2023-02-19T14:08:54;4.70;;;3.60;;
9924;SDS011;5001;51.674;7.868;2023-02-19T14:14:25;2.80;;;2.60;;
9924;SDS011;5001;51.674;7.868;2023-02-19T14:16:55;2.90;;;2.60;;
9924;SDS011;5001;51.674;7.868;2023-02-19T14:19:43;3.33;;;2.90;;
9924;SDS011;5001;51.674;7.868;2023-02-19T14:33:32;3.77;;;2.77;;
9924;SDS011;5001;51.674;7.868;2023-02-19T14:36:08;2.77;;;2.47;;
9924;SDS011;5001;51.674;7.868;2023-02-19T14:38:49;2.83;;;2.53;;
9924;SDS011;5001;51.674;7.868;2023-02-19T14:41:21;2.80;;;2.60;;
9924;SDS011;5001;51.674;7.868;2023-02-19T14:43:50;2.80;;;2.53;;
9924;SDS011;5001;51.674;7.868;2023-02-19T14:46:28;2.40;;;2.17;;
9924;SDS011;5001;51.674;7.868;2023-02-19T14:49:03;2.83;;;2.33;;
9924;SDS011;5001;51.674;7.868;2023-02-19T14:51:39;3.43;;;2.37;;
9924;SDS011;5001;51.674;7.868;2023-02-19T14:54:11;3.60;;;2.80;;
9924;SDS011;5001;51.674;7.868;2023-02-19T14:56:49;3.27;;;2.70;;
9924;SDS011;5001;51.674;7.868;2023-02-19T15:01:45;2.57;;;2.37;;
9924;SDS011;5001;51.674;7.868;2023-02-19T15:04:22;4.27;;;2.87;;
9924;SDS011;5001;51.674;7.868;2023-02-19T15:06:51;3.30;;;3.00;;
9924;SDS011;5001;51.674;7.868;2023-02-19T15:09:23;3.17;;;2.83;;
9924;SDS011;5001;51.674;7.868;2023-02-19T15:11:58;3.17;;;2.87;;
9924;SDS011;5001;51.674;7.868;2023-02-19T15:14:28;3.20;;;2.90;;
9924;SDS011;5001;51.674;7.868;2023-02-19T15:16:58;3.17;;;2.40;;
9924;SDS011;5001;51.674;7.868;2023-02-19T15:19:29;4.70;;;4.30;;
9924;SDS011;5001;51.674;7.868;2023-02-19T15:22:00;6.40;;;4.37;;
9924;SDS011;5001;51.674;7.868;2023-02-19T15:24:28;4.83;;;3.53;;
9924;SDS011;5001;51.674;7.868;2023-02-19T15:26:55;10.17;;;7.07;;
9924;SDS011;5001;51.674;7.868;2023-02-19T15:29:23;3.90;;;3.50;;
9924;SDS011;5001;51.674;7.868;2023-02-19T15:31:55;6.67;;;3.80;;
9924;SDS011;5001;51.674;7.868;2023-02-19T15:34:27;4.10;;;3.67;;
9924;SDS011;5001;51.674;7.868;2023-02-19T15:36:57;4.63;;;3.53;;
9924;SDS011;5001;51.674;7.868;2023-02-19T15:39:39;4.17;;;3.77;;
9924;SDS011;5001;51.674;7.868;2023-02-19T15:42:31;12.07;;;10.77;;
9924;SDS011;5001;51.674;7.868;2023-02-19T15:47:49;8.03;;;6.90;;
9924;SDS011;5001;51.674;7.868;2023-02-19T15:50:18;11.70;;;9.87;;
9924;SDS011;5001;51.674;7.868;2023-02-19T15:58:18;43.23;;;27.13;;
9924;SDS011;5001;51.674;7.868;2023-02-19T16:01:00;16.57;;;13.87;;
9924;SDS011;5001;51.674;7.868;2023-02-19T16:03:33;11.90;;;8.57;;
9924;SDS011;5001;51.674;7.868;2023-02-19T16:06:01;20.90;;;15.03;;
9924;SDS011;5001;51.674;7.868;2023-02-19T16:08:44;34.93;;;24.57;;
9924;SDS011;5001;51.674;7.868;2023-02-19T16:13:48;19.50;;;12.23;;
9924;SDS011;5001;51.674;7.868;2023-02-19T16:18:50;8.43;;;6.27;;
9924;SDS011;5001;51.674;7.868;2023-02-19T16:21:20;7.83;;;6.47;;
9924;SDS011;5001;51.674;7.868;2023-02-19T16:24:47;8.50;;;6.30;;
9924;SDS011;5001;51.674;7.868;2023-02-19T16:26:56;5.87;;;4.97;;
9924;SDS011;5001;51.674;7.868;2023-02-19T16:29:26;6.73;;;5.93;;
9924;SDS011;5001;51.674;7.868;2023-02-19T16:31:56;6.73;;;6.00;;
9924;SDS011;5001;51.674;7.868;2023-02-19T16:34:33;7.43;;;6.60;;
9924;SDS011;5001;51.674;7.868;2023-02-19T16:42:34;8.47;;;6.77;;
9924;SDS011;5001;51.674;7.868;2023-02-19T16:45:03;10.77;;;9.10;;
9924;SDS011;5001;51.674;7.868;2023-02-19T16:47:35;12.60;;;8.73;;
9924;SDS011;5001;51.674;7.868;2023-02-19T16:50:09;11.33;;;10.17;;
9924;SDS011;5001;51.674;7.868;2023-02-19T16:52:49;11.40;;;9.20;;
9924;SDS011;5001;51.674;7.868;2023-02-19T16:55:17;10.60;;;9.10;;
9924;SDS011;5001;51.674;7.868;2023-02-19T16:57:44;8.43;;;7.53;;
9924;SDS011;5001;51.674;7.868;2023-02-19T17:00:15;8.90;;;8.00;;
9924;SDS011;5001;51.674;7.868;2023-02-19T17:02:46;8.73;;;7.83;;
9924;SDS011;5001;51.674;7.868;2023-02-19T17:05:21;12.57;;;11.07;;
9924;SDS011;5001;51.674;7.868;2023-02-19T17:07:49;14.47;;;13.07;;
9924;SDS011;5001;51.674;7.868;2023-02-19T17:10:18;13.90;;;11.23;;
9924;SDS011;5001;51.674;7.868;2023-02-19T17:12:52;14.33;;;12.80;;
9924;SDS011;5001;51.674;7.868;2023-02-19T17:15:21;13.17;;;11.73;;
9924;SDS011;5001;51.674;7.868;2023-02-19T17:17:51;13.37;;;10.90;;
9924;SDS011;5001;51.674;7.868;2023-02-19T17:20:22;18.80;;;16.90;;
9924;SDS011;5001;51.674;7.868;2023-02-19T17:22:53;21.93;;;19.70;;
9924;SDS011;5001;51.674;7.868;2023-02-19T17:25:21;23.10;;;20.70;;
9924;SDS011;5001;51.674;7.868;2023-02-19T17:27:49;12.63;;;10.37;;
9924;SDS011;5001;51.674;7.868;2023-02-19T17:30:17;13.00;;;11.17;;
9924;SDS011;5001;51.674;7.868;2023-02-19T17:32:53;30.03;;;25.97;;
9924;SDS011;5001;51.674;7.868;2023-02-19T17:35:20;18.30;;;15.77;;
9924;SDS011;5001;51.674;7.868;2023-02-19T17:37:47;16.50;;;14.80;;
9924;SDS011;5001;51.674;7.868;2023-02-19T17:40:18;16.70;;;14.93;;
9924;SDS011;5001;51.674;7.868;2023-02-19T17:42:59;16.37;;;14.50;;
9924;SDS011;5001;51.674;7.868;2023-02-19T17:45:29;18.50;;;15.37;;
9924;SDS011;5001;51.674;7.868;2023-02-19T17:47:57;15.80;;;14.13;;
9924;SDS011;5001;51.674;7.868;2023-02-19T17:50:28;15.83;;;13.63;;
9924;SDS011;5001;51.674;7.868;2023-02-19T17:52:57;23.43;;;21.03;;
9924;SDS011;5001;51.674;7.868;2023-02-19T17:55:24;17.77;;;15.87;;
9924;SDS011;5001;51.674;7.868;2023-02-19T17:57:52;31.17;;;28.03;;
9924;SDS011;5001;51.674;7.868;2023-02-19T18:00:23;19.30;;;17.33;;
9924;SDS011;5001;51.674;7.868;2023-02-19T18:02:55;19.07;;;16.60;;
9924;SDS011;5001;51.674;7.868;2023-02-19T18:05:23;12.27;;;10.67;;
9924;SDS011;5001;51.674;7.868;2023-02-19T18:07:52;18.03;;;15.70;;
9924;SDS011;5001;51.674;7.868;2023-02-19T18:10:20;12.53;;;11.20;;
9924;SDS011;5001;51.674;7.868;2023-02-19T18:12:48;12.87;;;11.17;;
9924;SDS011;5001;51.674;7.868;2023-02-19T18:15:17;13.43;;;11.47;;
9924;SDS011;5001;51.674;7.868;2023-02-19T18:17:48;14.47;;;11.30;;
9924;SDS011;5001;51.674;7.868;2023-02-19T18:20:16;15.90;;;13.00;;